Terminal Aerodrome Forecast
Issued by NWS

Home | Current Version | Previous Version | Text Only | Print | Product List | Glossary On
Versions: 1 2 3 4 5 6 7 8 9 10 11 12 13 14 15 16 17
324
FTUS45 KABQ 281120
TAFAEG
TAF
KAEG 281120Z 2812/0112 22018G28KT P6SM OVC070
     FM281600 23024G33KT P6SM VCSH OVC050
     FM281800 26030G43KT P6SM VCSH OVC050
      TEMPO 2820/2824 5SM -SN OVC025
     FM010100 30026G34KT P6SM BKN050
     FM010400 30015KT P6SM FEW050=

USA.gov is the U.S. government's official web portal to all federal, state and local government web resources and services.